sensor_id;sensor_type;location;lat;lon;timestamp;P1;durP1;ratioP1;P2;durP2;ratioP2
5696;SDS011;2873;50.966;7.210;2022-08-19T00:01:52;20.60;;;17.58;;
5696;SDS011;2873;50.966;7.210;2022-08-19T00:04:23;22.83;;;18.10;;
5696;SDS011;2873;50.966;7.210;2022-08-19T00:06:51;21.13;;;17.92;;
5696;SDS011;2873;50.966;7.210;2022-08-19T00:09:17;23.75;;;18.65;;
5696;SDS011;2873;50.966;7.210;2022-08-19T00:11:45;22.30;;;18.00;;
5696;SDS011;2873;50.966;7.210;2022-08-19T00:14:12;22.15;;;18.38;;
5696;SDS011;2873;50.966;7.210;2022-08-19T00:16:40;20.25;;;17.92;;
5696;SDS011;2873;50.966;7.210;2022-08-19T00:19:07;23.00;;;18.58;;
5696;SDS011;2873;50.966;7.210;2022-08-19T00:21:33;19.80;;;17.42;;
5696;SDS011;2873;50.966;7.210;2022-08-19T00:24:03;22.02;;;18.02;;
5696;SDS011;2873;50.966;7.210;2022-08-19T00:26:29;21.55;;;18.75;;
5696;SDS011;2873;50.966;7.210;2022-08-19T00:28:55;22.90;;;18.60;;
5696;SDS011;2873;50.966;7.210;2022-08-19T00:31:21;22.43;;;19.17;;
5696;SDS011;2873;50.966;7.210;2022-08-19T00:33:47;25.40;;;19.55;;
5696;SDS011;2873;50.966;7.210;2022-08-19T00:36:15;24.20;;;19.77;;
5696;SDS011;2873;50.966;7.210;2022-08-19T00:38:41;24.70;;;20.50;;
5696;SDS011;2873;50.966;7.210;2022-08-19T00:41:08;23.00;;;19.20;;
5696;SDS011;2873;50.966;7.210;2022-08-19T00:43:35;22.88;;;19.42;;
5696;SDS011;2873;50.966;7.210;2022-08-19T00:46:01;21.33;;;18.57;;
5696;SDS011;2873;50.966;7.210;2022-08-19T00:48:29;20.88;;;18.50;;
5696;SDS011;2873;50.966;7.210;2022-08-19T00:50:56;23.00;;;19.90;;
5696;SDS011;2873;50.966;7.210;2022-08-19T00:53:24;25.43;;;20.20;;
5696;SDS011;2873;50.966;7.210;2022-08-19T00:55:54;25.40;;;19.55;;
5696;SDS011;2873;50.966;7.210;2022-08-19T00:58:24;26.73;;;20.23;;
5696;SDS011;2873;50.966;7.210;2022-08-19T01:00:53;22.00;;;19.60;;
5696;SDS011;2873;50.966;7.210;2022-08-19T01:03:20;25.83;;;20.23;;
5696;SDS011;2873;50.966;7.210;2022-08-19T01:05:47;28.75;;;21.00;;
5696;SDS011;2873;50.966;7.210;2022-08-19T01:08:15;29.60;;;20.45;;
5696;SDS011;2873;50.966;7.210;2022-08-19T01:10:43;27.15;;;20.95;;
5696;SDS011;2873;50.966;7.210;2022-08-19T01:13:13;24.25;;;21.13;;
5696;SDS011;2873;50.966;7.210;2022-08-19T01:15:52;25.90;;;21.45;;
5696;SDS011;2873;50.966;7.210;2022-08-19T01:18:21;29.92;;;22.40;;
5696;SDS011;2873;50.966;7.210;2022-08-19T01:20:48;26.53;;;21.77;;
5696;SDS011;2873;50.966;7.210;2022-08-19T01:23:14;27.15;;;22.35;;
5696;SDS011;2873;50.966;7.210;2022-08-19T01:25:41;24.50;;;20.73;;
5696;SDS011;2873;50.966;7.210;2022-08-19T01:28:21;27.60;;;20.60;;
5696;SDS011;2873;50.966;7.210;2022-08-19T01:30:50;23.38;;;19.27;;
5696;SDS011;2873;50.966;7.210;2022-08-19T01:33:15;24.30;;;19.03;;
5696;SDS011;2873;50.966;7.210;2022-08-19T01:35:41;22.23;;;18.98;;
5696;SDS011;2873;50.966;7.210;2022-08-19T01:38:08;25.87;;;19.30;;
5696;SDS011;2873;50.966;7.210;2022-08-19T01:40:43;22.55;;;19.45;;
5696;SDS011;2873;50.966;7.210;2022-08-19T01:43:09;24.02;;;19.63;;
5696;SDS011;2873;50.966;7.210;2022-08-19T01:45:34;25.83;;;20.67;;
5696;SDS011;2873;50.966;7.210;2022-08-19T01:48:00;24.23;;;20.00;;
5696;SDS011;2873;50.966;7.210;2022-08-19T01:50:29;26.38;;;20.15;;
5696;SDS011;2873;50.966;7.210;2022-08-19T01:52:56;24.58;;;19.88;;
5696;SDS011;2873;50.966;7.210;2022-08-19T01:55:22;24.60;;;19.50;;
5696;SDS011;2873;50.966;7.210;2022-08-19T01:57:50;23.60;;;19.38;;
5696;SDS011;2873;50.966;7.210;2022-08-19T02:00:20;28.20;;;20.15;;
5696;SDS011;2873;50.966;7.210;2022-08-19T02:02:47;23.52;;;19.60;;
5696;SDS011;2873;50.966;7.210;2022-08-19T02:05:13;23.45;;;19.92;;
5696;SDS011;2873;50.966;7.210;2022-08-19T02:07:42;24.75;;;19.70;;
5696;SDS011;2873;50.966;7.210;2022-08-19T02:10:11;24.25;;;20.27;;
5696;SDS011;2873;50.966;7.210;2022-08-19T02:12:39;27.73;;;21.38;;
5696;SDS011;2873;50.966;7.210;2022-08-19T02:15:05;27.58;;;22.00;;
5696;SDS011;2873;50.966;7.210;2022-08-19T02:17:32;29.52;;;22.70;;
5696;SDS011;2873;50.966;7.210;2022-08-19T02:19:58;35.72;;;24.05;;
5696;SDS011;2873;50.966;7.210;2022-08-19T02:22:24;31.00;;;23.30;;
5696;SDS011;2873;50.966;7.210;2022-08-19T02:24:53;27.05;;;21.50;;
5696;SDS011;2873;50.966;7.210;2022-08-19T02:27:19;31.35;;;23.17;;
5696;SDS011;2873;50.966;7.210;2022-08-19T02:29:46;30.02;;;22.73;;
5696;SDS011;2873;50.966;7.210;2022-08-19T02:32:13;31.60;;;24.25;;
5696;SDS011;2873;50.966;7.210;2022-08-19T02:34:39;33.70;;;24.47;;
5696;SDS011;2873;50.966;7.210;2022-08-19T02:37:05;33.05;;;24.30;;
5696;SDS011;2873;50.966;7.210;2022-08-19T02:39:51;30.63;;;23.42;;
5696;SDS011;2873;50.966;7.210;2022-08-19T02:42:17;34.30;;;25.20;;
5696;SDS011;2873;50.966;7.210;2022-08-19T02:44:42;32.88;;;24.20;;
5696;SDS011;2873;50.966;7.210;2022-08-19T02:47:09;31.25;;;23.50;;
5696;SDS011;2873;50.966;7.210;2022-08-19T02:49:35;28.55;;;22.52;;
5696;SDS011;2873;50.966;7.210;2022-08-19T02:52:01;31.58;;;23.17;;
5696;SDS011;2873;50.966;7.210;2022-08-19T02:54:27;30.30;;;22.23;;
5696;SDS011;2873;50.966;7.210;2022-08-19T02:56:53;29.95;;;22.50;;
5696;SDS011;2873;50.966;7.210;2022-08-19T02:59:19;27.10;;;22.53;;
5696;SDS011;2873;50.966;7.210;2022-08-19T03:01:45;28.95;;;21.70;;
5696;SDS011;2873;50.966;7.210;2022-08-19T03:04:12;27.70;;;21.25;;
5696;SDS011;2873;50.966;7.210;2022-08-19T03:06:39;29.17;;;21.90;;
5696;SDS011;2873;50.966;7.210;2022-08-19T03:09:06;25.48;;;21.38;;
5696;SDS011;2873;50.966;7.210;2022-08-19T03:11:33;30.85;;;21.95;;
5696;SDS011;2873;50.966;7.210;2022-08-19T03:13:59;32.08;;;21.88;;
5696;SDS011;2873;50.966;7.210;2022-08-19T03:16:27;27.73;;;20.30;;
5696;SDS011;2873;50.966;7.210;2022-08-19T03:18:55;28.20;;;20.48;;
5696;SDS011;2873;50.966;7.210;2022-08-19T03:21:25;26.90;;;20.25;;
5696;SDS011;2873;50.966;7.210;2022-08-19T03:23:56;27.67;;;19.65;;
5696;SDS011;2873;50.966;7.210;2022-08-19T03:26:22;24.55;;;19.30;;
5696;SDS011;2873;50.966;7.210;2022-08-19T03:28:48;25.92;;;20.27;;
5696;SDS011;2873;50.966;7.210;2022-08-19T03:31:15;26.33;;;20.33;;
5696;SDS011;2873;50.966;7.210;2022-08-19T03:33:47;26.80;;;20.60;;
5696;SDS011;2873;50.966;7.210;2022-08-19T03:36:18;30.75;;;23.25;;
5696;SDS011;2873;50.966;7.210;2022-08-19T03:38:49;34.80;;;25.15;;
5696;SDS011;2873;50.966;7.210;2022-08-19T03:41:30;32.47;;;23.60;;
5696;SDS011;2873;50.966;7.210;2022-08-19T03:43:57;31.15;;;23.02;;
5696;SDS011;2873;50.966;7.210;2022-08-19T03:46:24;30.70;;;21.80;;
5696;SDS011;2873;50.966;7.210;2022-08-19T03:48:55;23.75;;;18.33;;
5696;SDS011;2873;50.966;7.210;2022-08-19T03:51:26;28.05;;;19.50;;
5696;SDS011;2873;50.966;7.210;2022-08-19T03:53:55;25.63;;;20.13;;
5696;SDS011;2873;50.966;7.210;2022-08-19T03:56:21;25.40;;;20.80;;
5696;SDS011;2873;50.966;7.210;2022-08-19T03:58:47;24.92;;;18.92;;
5696;SDS011;2873;50.966;7.210;2022-08-19T04:01:16;23.17;;;18.80;;
5696;SDS011;2873;50.966;7.210;2022-08-19T04:03:44;23.10;;;18.40;;
5696;SDS011;2873;50.966;7.210;2022-08-19T04:06:18;25.00;;;19.27;;
5696;SDS011;2873;50.966;7.210;2022-08-19T04:08:46;28.65;;;19.95;;
5696;SDS011;2873;50.966;7.210;2022-08-19T04:11:16;27.27;;;21.83;;
5696;SDS011;2873;50.966;7.210;2022-08-19T04:13:45;28.58;;;20.65;;
5696;SDS011;2873;50.966;7.210;2022-08-19T04:16:11;29.40;;;21.60;;
5696;SDS011;2873;50.966;7.210;2022-08-19T04:18:38;31.10;;;22.17;;
5696;SDS011;2873;50.966;7.210;2022-08-19T04:21:05;28.77;;;21.25;;
5696;SDS011;2873;50.966;7.210;2022-08-19T04:23:32;26.90;;;20.33;;
5696;SDS011;2873;50.966;7.210;2022-08-19T04:25:59;26.40;;;20.13;;
5696;SDS011;2873;50.966;7.210;2022-08-19T04:28:25;23.47;;;18.17;;
5696;SDS011;2873;50.966;7.210;2022-08-19T04:30:51;22.23;;;17.77;;
5696;SDS011;2873;50.966;7.210;2022-08-19T04:33:20;21.98;;;16.88;;
5696;SDS011;2873;50.966;7.210;2022-08-19T04:35:51;20.98;;;17.67;;
5696;SDS011;2873;50.966;7.210;2022-08-19T04:38:18;21.40;;;17.20;;
5696;SDS011;2873;50.966;7.210;2022-08-19T04:40:48;21.98;;;17.13;;
5696;SDS011;2873;50.966;7.210;2022-08-19T04:43:35;22.20;;;17.10;;
5696;SDS011;2873;50.966;7.210;2022-08-19T04:46:06;22.50;;;17.58;;
5696;SDS011;2873;50.966;7.210;2022-08-19T04:48:36;22.90;;;17.75;;
5696;SDS011;2873;50.966;7.210;2022-08-19T04:51:06;23.55;;;18.42;;
5696;SDS011;2873;50.966;7.210;2022-08-19T04:53:34;24.13;;;18.98;;
5696;SDS011;2873;50.966;7.210;2022-08-19T04:56:03;26.17;;;19.38;;
5696;SDS011;2873;50.966;7.210;2022-08-19T04:58:32;24.65;;;18.73;;
5696;SDS011;2873;50.966;7.210;2022-08-19T05:00:58;26.27;;;19.40;;
5696;SDS011;2873;50.966;7.210;2022-08-19T05:03:27;25.23;;;20.13;;
5696;SDS011;2873;50.966;7.210;2022-08-19T05:05:58;27.38;;;20.67;;
5696;SDS011;2873;50.966;7.210;2022-08-19T05:08:28;29.60;;;21.00;;
5696;SDS011;2873;50.966;7.210;2022-08-19T05:10:55;30.13;;;22.08;;
5696;SDS011;2873;50.966;7.210;2022-08-19T05:13:22;30.10;;;22.63;;
5696;SDS011;2873;50.966;7.210;2022-08-19T05:15:57;32.13;;;22.35;;
5696;SDS011;2873;50.966;7.210;2022-08-19T05:18:23;29.25;;;21.45;;
5696;SDS011;2873;50.966;7.210;2022-08-19T05:21:08;28.10;;;21.80;;
5696;SDS011;2873;50.966;7.210;2022-08-19T05:23:53;30.60;;;21.63;;
5696;SDS011;2873;50.966;7.210;2022-08-19T05:26:19;30.90;;;23.10;;
5696;SDS011;2873;50.966;7.210;2022-08-19T05:28:44;33.17;;;23.67;;
5696;SDS011;2873;50.966;7.210;2022-08-19T05:31:10;33.42;;;22.60;;
5696;SDS011;2873;50.966;7.210;2022-08-19T05:33:35;28.37;;;21.90;;
5696;SDS011;2873;50.966;7.210;2022-08-19T05:36:02;28.93;;;21.77;;
5696;SDS011;2873;50.966;7.210;2022-08-19T05:38:28;29.95;;;20.95;;
5696;SDS011;2873;50.966;7.210;2022-08-19T05:40:54;27.95;;;20.60;;
5696;SDS011;2873;50.966;7.210;2022-08-19T05:43:20;29.92;;;21.75;;
5696;SDS011;2873;50.966;7.210;2022-08-19T05:45:46;31.88;;;22.77;;
5696;SDS011;2873;50.966;7.210;2022-08-19T05:48:11;34.10;;;22.40;;
5696;SDS011;2873;50.966;7.210;2022-08-19T05:50:38;34.28;;;23.90;;
5696;SDS011;2873;50.966;7.210;2022-08-19T05:53:04;33.47;;;24.38;;
5696;SDS011;2873;50.966;7.210;2022-08-19T05:55:31;34.93;;;26.07;;
5696;SDS011;2873;50.966;7.210;2022-08-19T05:57:57;41.20;;;27.55;;
5696;SDS011;2873;50.966;7.210;2022-08-19T06:00:22;46.67;;;30.07;;
5696;SDS011;2873;50.966;7.210;2022-08-19T06:02:48;38.97;;;25.17;;
5696;SDS011;2873;50.966;7.210;2022-08-19T06:05:14;28.92;;;22.67;;
5696;SDS011;2873;50.966;7.210;2022-08-19T06:07:39;23.83;;;18.20;;
5696;SDS011;2873;50.966;7.210;2022-08-19T06:10:06;22.45;;;18.10;;
5696;SDS011;2873;50.966;7.210;2022-08-19T06:12:34;25.48;;;18.30;;
5696;SDS011;2873;50.966;7.210;2022-08-19T06:15:02;25.83;;;19.23;;
5696;SDS011;2873;50.966;7.210;2022-08-19T06:17:33;27.55;;;20.30;;
5696;SDS011;2873;50.966;7.210;2022-08-19T06:20:00;26.20;;;20.88;;
5696;SDS011;2873;50.966;7.210;2022-08-19T06:22:26;26.48;;;21.00;;
5696;SDS011;2873;50.966;7.210;2022-08-19T06:24:52;30.38;;;22.02;;
5696;SDS011;2873;50.966;7.210;2022-08-19T06:27:19;27.55;;;21.98;;
5696;SDS011;2873;50.966;7.210;2022-08-19T06:29:45;28.08;;;21.13;;
5696;SDS011;2873;50.966;7.210;2022-08-19T06:32:11;34.08;;;24.00;;
5696;SDS011;2873;50.966;7.210;2022-08-19T06:34:40;36.58;;;26.65;;
5696;SDS011;2873;50.966;7.210;2022-08-19T06:37:06;40.83;;;28.98;;
5696;SDS011;2873;50.966;7.210;2022-08-19T06:39:33;47.08;;;29.25;;
5696;SDS011;2873;50.966;7.210;2022-08-19T06:42:02;43.10;;;30.95;;
5696;SDS011;2873;50.966;7.210;2022-08-19T06:44:32;39.53;;;27.60;;
5696;SDS011;2873;50.966;7.210;2022-08-19T06:47:01;40.78;;;28.70;;
5696;SDS011;2873;50.966;7.210;2022-08-19T06:49:28;43.97;;;31.10;;
5696;SDS011;2873;50.966;7.210;2022-08-19T06:51:56;53.38;;;36.42;;
5696;SDS011;2873;50.966;7.210;2022-08-19T06:54:23;50.10;;;35.30;;
5696;SDS011;2873;50.966;7.210;2022-08-19T06:56:50;53.40;;;35.42;;
5696;SDS011;2873;50.966;7.210;2022-08-19T06:59:18;64.50;;;38.25;;
5696;SDS011;2873;50.966;7.210;2022-08-19T07:01:49;55.08;;;37.58;;
5696;SDS011;2873;50.966;7.210;2022-08-19T07:04:18;54.10;;;36.15;;
5696;SDS011;2873;50.966;7.210;2022-08-19T07:06:49;66.72;;;42.28;;
5696;SDS011;2873;50.966;7.210;2022-08-19T07:09:21;57.15;;;37.90;;
5696;SDS011;2873;50.966;7.210;2022-08-19T07:11:49;62.33;;;39.25;;
5696;SDS011;2873;50.966;7.210;2022-08-19T07:14:18;58.67;;;37.10;;
5696;SDS011;2873;50.966;7.210;2022-08-19T07:16:50;55.40;;;37.08;;
5696;SDS011;2873;50.966;7.210;2022-08-19T07:19:20;62.47;;;38.35;;
5696;SDS011;2873;50.966;7.210;2022-08-19T07:21:49;57.25;;;36.28;;
5696;SDS011;2873;50.966;7.210;2022-08-19T07:24:18;56.35;;;35.13;;
5696;SDS011;2873;50.966;7.210;2022-08-19T07:27:40;52.50;;;34.53;;
5696;SDS011;2873;50.966;7.210;2022-08-19T07:30:09;51.58;;;34.28;;
5696;SDS011;2873;50.966;7.210;2022-08-19T07:32:40;55.22;;;34.88;;
5696;SDS011;2873;50.966;7.210;2022-08-19T07:35:29;55.53;;;36.13;;
5696;SDS011;2873;50.966;7.210;2022-08-19T07:37:57;48.77;;;31.90;;
5696;SDS011;2873;50.966;7.210;2022-08-19T07:40:23;52.83;;;35.38;;
5696;SDS011;2873;50.966;7.210;2022-08-19T07:42:51;49.35;;;32.65;;
5696;SDS011;2873;50.966;7.210;2022-08-19T07:45:17;47.03;;;30.63;;
5696;SDS011;2873;50.966;7.210;2022-08-19T07:47:42;45.65;;;30.17;;
5696;SDS011;2873;50.966;7.210;2022-08-19T07:50:08;47.40;;;31.17;;
5696;SDS011;2873;50.966;7.210;2022-08-19T07:52:39;54.38;;;34.08;;
5696;SDS011;2873;50.966;7.210;2022-08-19T07:55:06;59.08;;;36.97;;
5696;SDS011;2873;50.966;7.210;2022-08-19T07:57:33;54.30;;;32.60;;
5696;SDS011;2873;50.966;7.210;2022-08-19T07:59:58;50.90;;;33.07;;
5696;SDS011;2873;50.966;7.210;2022-08-19T08:02:24;51.70;;;34.60;;
5696;SDS011;2873;50.966;7.210;2022-08-19T08:04:50;54.35;;;35.85;;
5696;SDS011;2873;50.966;7.210;2022-08-19T08:07:34;48.28;;;32.33;;
5696;SDS011;2873;50.966;7.210;2022-08-19T08:10:18;50.80;;;35.55;;
5696;SDS011;2873;50.966;7.210;2022-08-19T08:12:44;46.10;;;32.20;;
5696;SDS011;2873;50.966;7.210;2022-08-19T08:15:12;44.60;;;30.92;;
5696;SDS011;2873;50.966;7.210;2022-08-19T08:17:43;51.17;;;30.77;;
5696;SDS011;2873;50.966;7.210;2022-08-19T08:20:11;49.03;;;32.90;;
5696;SDS011;2873;50.966;7.210;2022-08-19T08:22:37;45.03;;;33.33;;
5696;SDS011;2873;50.966;7.210;2022-08-19T08:25:27;48.55;;;32.90;;
5696;SDS011;2873;50.966;7.210;2022-08-19T08:27:53;44.13;;;32.63;;
5696;SDS011;2873;50.966;7.210;2022-08-19T08:30:23;48.95;;;33.08;;
5696;SDS011;2873;50.966;7.210;2022-08-19T08:32:52;46.40;;;31.65;;
5696;SDS011;2873;50.966;7.210;2022-08-19T08:35:20;48.50;;;29.50;;
5696;SDS011;2873;50.966;7.210;2022-08-19T08:37:51;39.87;;;26.20;;
5696;SDS011;2873;50.966;7.210;2022-08-19T08:43:29;43.60;;;27.40;;
5696;SDS011;2873;50.966;7.210;2022-08-19T08:46:10;37.47;;;26.25;;
5696;SDS011;2873;50.966;7.210;2022-08-19T08:51:29;42.42;;;26.15;;
5696;SDS011;2873;50.966;7.210;2022-08-19T08:54:07;34.53;;;23.87;;
5696;SDS011;2873;50.966;7.210;2022-08-19T08:56:38;31.30;;;23.35;;
5696;SDS011;2873;50.966;7.210;2022-08-19T08:59:30;29.83;;;20.90;;
5696;SDS011;2873;50.966;7.210;2022-08-19T09:02:40;34.00;;;20.40;;
5696;SDS011;2873;50.966;7.210;2022-08-19T09:05:06;28.90;;;18.90;;
5696;SDS011;2873;50.966;7.210;2022-08-19T09:15:25;25.90;;;19.30;;
5696;SDS011;2873;50.966;7.210;2022-08-19T09:18:01;27.48;;;18.65;;
5696;SDS011;2873;50.966;7.210;2022-08-19T09:20:33;25.10;;;19.83;;
5696;SDS011;2873;50.966;7.210;2022-08-19T09:22:59;27.35;;;16.27;;
5696;SDS011;2873;50.966;7.210;2022-08-19T09:25:25;25.52;;;18.85;;
5696;SDS011;2873;50.966;7.210;2022-08-19T09:27:53;20.90;;;15.90;;
5696;SDS011;2873;50.966;7.210;2022-08-19T09:30:30;24.95;;;17.30;;
5696;SDS011;2873;50.966;7.210;2022-08-19T09:32:58;31.88;;;19.80;;
5696;SDS011;2873;50.966;7.210;2022-08-19T09:35:25;32.35;;;18.80;;
5696;SDS011;2873;50.966;7.210;2022-08-19T09:37:53;29.00;;;19.15;;
5696;SDS011;2873;50.966;7.210;2022-08-19T09:40:21;26.67;;;17.15;;
5696;SDS011;2873;50.966;7.210;2022-08-19T09:42:47;25.97;;;18.13;;
5696;SDS011;2873;50.966;7.210;2022-08-19T09:45:13;23.58;;;15.57;;
5696;SDS011;2873;50.966;7.210;2022-08-19T09:47:40;20.35;;;15.60;;
5696;SDS011;2873;50.966;7.210;2022-08-19T09:50:07;21.48;;;14.95;;
5696;SDS011;2873;50.966;7.210;2022-08-19T09:52:34;23.00;;;16.40;;
5696;SDS011;2873;50.966;7.210;2022-08-19T09:55:01;24.73;;;17.13;;
5696;SDS011;2873;50.966;7.210;2022-08-19T09:57:28;26.40;;;20.20;;
5696;SDS011;2873;50.966;7.210;2022-08-19T09:59:54;28.40;;;18.77;;
5696;SDS011;2873;50.966;7.210;2022-08-19T10:02:19;28.53;;;17.87;;
5696;SDS011;2873;50.966;7.210;2022-08-19T10:04:45;26.80;;;18.13;;
5696;SDS011;2873;50.966;7.210;2022-08-19T10:07:29;26.38;;;19.60;;
5696;SDS011;2873;50.966;7.210;2022-08-19T10:09:55;29.40;;;17.83;;
5696;SDS011;2873;50.966;7.210;2022-08-19T10:12:21;31.20;;;22.55;;
5696;SDS011;2873;50.966;7.210;2022-08-19T10:14:47;32.55;;;20.83;;
5696;SDS011;2873;50.966;7.210;2022-08-19T10:17:13;38.35;;;24.85;;
5696;SDS011;2873;50.966;7.210;2022-08-19T10:19:39;37.88;;;26.35;;
5696;SDS011;2873;50.966;7.210;2022-08-19T10:22:05;30.75;;;21.20;;
5696;SDS011;2873;50.966;7.210;2022-08-19T10:24:32;31.70;;;23.08;;
5696;SDS011;2873;50.966;7.210;2022-08-19T10:26:59;31.67;;;24.35;;
5696;SDS011;2873;50.966;7.210;2022-08-19T10:29:28;30.90;;;22.92;;
5696;SDS011;2873;50.966;7.210;2022-08-19T10:31:54;33.08;;;23.25;;
5696;SDS011;2873;50.966;7.210;2022-08-19T10:34:21;39.10;;;20.50;;
5696;SDS011;2873;50.966;7.210;2022-08-19T10:36:47;38.90;;;24.30;;
5696;SDS011;2873;50.966;7.210;2022-08-19T10:39:13;39.70;;;23.37;;
5696;SDS011;2873;50.966;7.210;2022-08-19T10:41:39;32.10;;;23.15;;
5696;SDS011;2873;50.966;7.210;2022-08-19T10:44:06;27.70;;;20.70;;
5696;SDS011;2873;50.966;7.210;2022-08-19T10:46:41;33.60;;;23.30;;
5696;SDS011;2873;50.966;7.210;2022-08-19T10:49:12;31.42;;;23.88;;
5696;SDS011;2873;50.966;7.210;2022-08-19T10:51:38;32.67;;;22.65;;
5696;SDS011;2873;50.966;7.210;2022-08-19T10:54:23;31.10;;;21.73;;
5696;SDS011;2873;50.966;7.210;2022-08-19T10:57:09;24.73;;;17.33;;
5696;SDS011;2873;50.966;7.210;2022-08-19T10:59:35;25.95;;;18.02;;
5696;SDS011;2873;50.966;7.210;2022-08-19T11:02:02;28.73;;;20.25;;
5696;SDS011;2873;50.966;7.210;2022-08-19T11:04:29;25.38;;;18.55;;
5696;SDS011;2873;50.966;7.210;2022-08-19T11:06:56;23.92;;;18.70;;
5696;SDS011;2873;50.966;7.210;2022-08-19T11:09:23;23.45;;;16.77;;
5696;SDS011;2873;50.966;7.210;2022-08-19T11:11:53;24.15;;;17.25;;
5696;SDS011;2873;50.966;7.210;2022-08-19T11:14:21;20.35;;;15.77;;
5696;SDS011;2873;50.966;7.210;2022-08-19T11:16:50;21.80;;;16.52;;
5696;SDS011;2873;50.966;7.210;2022-08-19T11:19:18;21.05;;;15.20;;
5696;SDS011;2873;50.966;7.210;2022-08-19T11:21:45;22.65;;;15.70;;
5696;SDS011;2873;50.966;7.210;2022-08-19T11:24:14;19.63;;;14.07;;
5696;SDS011;2873;50.966;7.210;2022-08-19T11:26:49;22.65;;;16.55;;
5696;SDS011;2873;50.966;7.210;2022-08-19T11:29:16;22.73;;;17.03;;
5696;SDS011;2873;50.966;7.210;2022-08-19T11:31:45;21.08;;;16.73;;
5696;SDS011;2873;50.966;7.210;2022-08-19T11:34:15;21.02;;;16.60;;
5696;SDS011;2873;50.966;7.210;2022-08-19T11:36:45;18.08;;;14.90;;
5696;SDS011;2873;50.966;7.210;2022-08-19T11:39:13;21.63;;;13.98;;
5696;SDS011;2873;50.966;7.210;2022-08-19T11:41:40;20.25;;;13.65;;
5696;SDS011;2873;50.966;7.210;2022-08-19T11:44:06;22.67;;;16.63;;
5696;SDS011;2873;50.966;7.210;2022-08-19T11:46:32;22.70;;;16.95;;
5696;SDS011;2873;50.966;7.210;2022-08-19T11:48:59;18.42;;;14.48;;
5696;SDS011;2873;50.966;7.210;2022-08-19T11:51:26;17.27;;;13.40;;
5696;SDS011;2873;50.966;7.210;2022-08-19T11:53:53;21.30;;;15.80;;
5696;SDS011;2873;50.966;7.210;2022-08-19T11:56:23;21.15;;;16.08;;
5696;SDS011;2873;50.966;7.210;2022-08-19T11:58:50;19.43;;;13.50;;
5696;SDS011;2873;50.966;7.210;2022-08-19T12:01:20;15.93;;;12.73;;
5696;SDS011;2873;50.966;7.210;2022-08-19T12:03:47;17.65;;;12.85;;
5696;SDS011;2873;50.966;7.210;2022-08-19T12:06:18;17.55;;;14.80;;
5696;SDS011;2873;50.966;7.210;2022-08-19T12:08:50;17.07;;;14.00;;
5696;SDS011;2873;50.966;7.210;2022-08-19T12:11:17;24.23;;;14.25;;
5696;SDS011;2873;50.966;7.210;2022-08-19T12:13:43;17.60;;;14.60;;
5696;SDS011;2873;50.966;7.210;2022-08-19T12:16:17;19.75;;;14.80;;
5696;SDS011;2873;50.966;7.210;2022-08-19T12:18:44;18.75;;;13.20;;
5696;SDS011;2873;50.966;7.210;2022-08-19T12:21:21;15.93;;;10.80;;
5696;SDS011;2873;50.966;7.210;2022-08-19T12:23:50;13.02;;;9.73;;
5696;SDS011;2873;50.966;7.210;2022-08-19T12:26:16;10.68;;;9.60;;
5696;SDS011;2873;50.966;7.210;2022-08-19T12:28:43;14.02;;;9.07;;
5696;SDS011;2873;50.966;7.210;2022-08-19T12:31:09;13.40;;;12.00;;
5696;SDS011;2873;50.966;7.210;2022-08-19T12:33:39;10.70;;;9.40;;
5696;SDS011;2873;50.966;7.210;2022-08-19T12:36:06;12.30;;;9.30;;
5696;SDS011;2873;50.966;7.210;2022-08-19T12:38:34;8.80;;;8.00;;
5696;SDS011;2873;50.966;7.210;2022-08-19T12:41:01;10.90;;;8.48;;
5696;SDS011;2873;50.966;7.210;2022-08-19T12:43:30;11.05;;;9.95;;
5696;SDS011;2873;50.966;7.210;2022-08-19T12:45:56;14.82;;;10.63;;
5696;SDS011;2873;50.966;7.210;2022-08-19T12:48:22;15.23;;;10.30;;
5696;SDS011;2873;50.966;7.210;2022-08-19T12:50:48;10.60;;;9.60;;
5696;SDS011;2873;50.966;7.210;2022-08-19T12:53:13;10.30;;;9.30;;
5696;SDS011;2873;50.966;7.210;2022-08-19T12:55:40;12.70;;;11.50;;
5696;SDS011;2873;50.966;7.210;2022-08-19T12:58:07;11.07;;;9.38;;
5696;SDS011;2873;50.966;7.210;2022-08-19T13:00:33;11.48;;;9.13;;
5696;SDS011;2873;50.966;7.210;2022-08-19T13:02:59;9.00;;;8.30;;
5696;SDS011;2873;50.966;7.210;2022-08-19T13:05:26;9.50;;;8.60;;
5696;SDS011;2873;50.966;7.210;2022-08-19T13:07:57;9.17;;;8.00;;
5696;SDS011;2873;50.966;7.210;2022-08-19T13:10:28;8.57;;;7.78;;
5696;SDS011;2873;50.966;7.210;2022-08-19T13:13:00;8.90;;;8.10;;
5696;SDS011;2873;50.966;7.210;2022-08-19T13:15:27;8.18;;;7.43;;
5696;SDS011;2873;50.966;7.210;2022-08-19T13:17:55;6.70;;;6.20;;
5696;SDS011;2873;50.966;7.210;2022-08-19T13:20:20;6.20;;;5.80;;
5696;SDS011;2873;50.966;7.210;2022-08-19T13:22:47;6.97;;;5.67;;
5696;SDS011;2873;50.966;7.210;2022-08-19T13:25:13;6.10;;;5.70;;
5696;SDS011;2873;50.966;7.210;2022-08-19T13:27:42;7.40;;;6.40;;
5696;SDS011;2873;50.966;7.210;2022-08-19T13:30:08;5.80;;;5.40;;
5696;SDS011;2873;50.966;7.210;2022-08-19T13:32:54;6.90;;;6.20;;
5696;SDS011;2873;50.966;7.210;2022-08-19T13:35:48;8.20;;;6.22;;
5696;SDS011;2873;50.966;7.210;2022-08-19T13:38:17;6.70;;;6.00;;
5696;SDS011;2873;50.966;7.210;2022-08-19T13:40:45;13.40;;;6.53;;
5696;SDS011;2873;50.966;7.210;2022-08-19T13:43:12;7.28;;;6.72;;
5696;SDS011;2873;50.966;7.210;2022-08-19T13:45:38;7.60;;;6.30;;
5696;SDS011;2873;50.966;7.210;2022-08-19T13:48:05;6.45;;;5.70;;
5696;SDS011;2873;50.966;7.210;2022-08-19T13:50:33;7.70;;;6.25;;
5696;SDS011;2873;50.966;7.210;2022-08-19T13:53:00;7.30;;;6.60;;
5696;SDS011;2873;50.966;7.210;2022-08-19T13:55:26;7.40;;;6.60;;
5696;SDS011;2873;50.966;7.210;2022-08-19T13:57:53;6.38;;;5.88;;
5696;SDS011;2873;50.966;7.210;2022-08-19T14:00:21;6.57;;;6.00;;
5696;SDS011;2873;50.966;7.210;2022-08-19T14:02:50;6.20;;;5.70;;
5696;SDS011;2873;50.966;7.210;2022-08-19T14:05:17;6.85;;;5.95;;
5696;SDS011;2873;50.966;7.210;2022-08-19T14:07:43;5.90;;;5.35;;
5696;SDS011;2873;50.966;7.210;2022-08-19T14:10:10;8.27;;;5.90;;
5696;SDS011;2873;50.966;7.210;2022-08-19T14:12:37;8.55;;;6.00;;
5696;SDS011;2873;50.966;7.210;2022-08-19T14:15:04;7.50;;;6.57;;
5696;SDS011;2873;50.966;7.210;2022-08-19T14:17:31;8.00;;;7.13;;
5696;SDS011;2873;50.966;7.210;2022-08-19T14:20:00;8.90;;;7.00;;
5696;SDS011;2873;50.966;7.210;2022-08-19T14:22:29;6.60;;;5.85;;
5696;SDS011;2873;50.966;7.210;2022-08-19T14:24:56;6.72;;;6.20;;
5696;SDS011;2873;50.966;7.210;2022-08-19T14:27:22;7.68;;;6.72;;
5696;SDS011;2873;50.966;7.210;2022-08-19T14:29:50;9.30;;;7.05;;
5696;SDS011;2873;50.966;7.210;2022-08-19T14:32:16;8.30;;;6.97;;
5696;SDS011;2873;50.966;7.210;2022-08-19T14:34:42;8.00;;;7.20;;
5696;SDS011;2873;50.966;7.210;2022-08-19T14:37:11;7.93;;;6.50;;
5696;SDS011;2873;50.966;7.210;2022-08-19T14:39:39;12.00;;;6.70;;
5696;SDS011;2873;50.966;7.210;2022-08-19T14:42:09;11.57;;;6.70;;
5696;SDS011;2873;50.966;7.210;2022-08-19T14:44:35;6.90;;;6.30;;
5696;SDS011;2873;50.966;7.210;2022-08-19T14:47:01;7.50;;;5.80;;
5696;SDS011;2873;50.966;7.210;2022-08-19T14:49:27;6.30;;;5.70;;
5696;SDS011;2873;50.966;7.210;2022-08-19T14:51:52;9.13;;;6.13;;
5696;SDS011;2873;50.966;7.210;2022-08-19T14:54:18;6.50;;;5.07;;
5696;SDS011;2873;50.966;7.210;2022-08-19T14:56:44;7.38;;;5.90;;
5696;SDS011;2873;50.966;7.210;2022-08-19T14:59:10;11.55;;;5.90;;
5696;SDS011;2873;50.966;7.210;2022-08-19T15:01:35;5.70;;;5.20;;
5696;SDS011;2873;50.966;7.210;2022-08-19T15:04:01;9.43;;;5.40;;
5696;SDS011;2873;50.966;7.210;2022-08-19T15:06:27;6.30;;;5.50;;
5696;SDS011;2873;50.966;7.210;2022-08-19T15:08:54;6.45;;;5.63;;
5696;SDS011;2873;50.966;7.210;2022-08-19T15:11:21;12.93;;;5.68;;
5696;SDS011;2873;50.966;7.210;2022-08-19T15:13:49;6.85;;;6.15;;
5696;SDS011;2873;50.966;7.210;2022-08-19T15:16:15;8.00;;;5.80;;